sensor_id;sensor_type;location;lat;lon;timestamp;P1;durP1;ratioP1;P2;durP2;ratioP2
62037;SDS011;47991;42.974;12.082;2023-08-07T00:01:33;13.50;;;2.90;;
62037;SDS011;47991;42.974;12.082;2023-08-07T00:04:00;11.70;;;2.60;;
62037;SDS011;47991;42.974;12.082;2023-08-07T00:06:28;11.80;;;3.00;;
62037;SDS011;47991;42.974;12.082;2023-08-07T00:08:55;11.10;;;2.80;;
62037;SDS011;47991;42.974;12.082;2023-08-07T00:11:22;9.60;;;2.90;;
62037;SDS011;47991;42.974;12.082;2023-08-07T00:13:48;9.80;;;2.80;;
62037;SDS011;47991;42.974;12.082;2023-08-07T00:16:15;10.70;;;2.60;;
62037;SDS011;47991;42.974;12.082;2023-08-07T00:18:42;10.30;;;2.60;;
62037;SDS011;47991;42.974;12.082;2023-08-07T00:21:09;11.60;;;3.10;;
62037;SDS011;47991;42.974;12.082;2023-08-07T00:23:36;12.30;;;3.20;;
62037;SDS011;47991;42.974;12.082;2023-08-07T00:26:03;12.00;;;3.40;;
62037;SDS011;47991;42.974;12.082;2023-08-07T00:28:29;10.60;;;3.60;;
62037;SDS011;47991;42.974;12.082;2023-08-07T00:30:56;9.80;;;2.80;;
62037;SDS011;47991;42.974;12.082;2023-08-07T00:33:23;10.00;;;2.60;;
62037;SDS011;47991;42.974;12.082;2023-08-07T00:35:50;14.10;;;3.40;;
62037;SDS011;47991;42.974;12.082;2023-08-07T00:38:17;10.60;;;2.90;;
62037;SDS011;47991;42.974;12.082;2023-08-07T00:43:31;12.00;;;3.00;;
62037;SDS011;47991;42.974;12.082;2023-08-07T00:45:58;7.60;;;2.60;;
62037;SDS011;47991;42.974;12.082;2023-08-07T00:48:25;9.40;;;2.80;;
62037;SDS011;47991;42.974;12.082;2023-08-07T00:50:51;11.70;;;3.20;;
62037;SDS011;47991;42.974;12.082;2023-08-07T00:53:19;10.20;;;2.90;;
62037;SDS011;47991;42.974;12.082;2023-08-07T00:55:46;7.30;;;2.30;;
62037;SDS011;47991;42.974;12.082;2023-08-07T00:58:14;13.30;;;3.00;;
62037;SDS011;47991;42.974;12.082;2023-08-07T01:00:41;9.60;;;2.90;;
62037;SDS011;47991;42.974;12.082;2023-08-07T01:03:09;10.30;;;2.90;;
62037;SDS011;47991;42.974;12.082;2023-08-07T01:05:40;14.40;;;3.20;;
62037;SDS011;47991;42.974;12.082;2023-08-07T01:08:07;14.00;;;3.10;;
62037;SDS011;47991;42.974;12.082;2023-08-07T01:13:19;14.20;;;3.00;;
62037;SDS011;47991;42.974;12.082;2023-08-07T01:15:59;14.70;;;2.90;;
62037;SDS011;47991;42.974;12.082;2023-08-07T01:18:34;11.50;;;3.10;;
62037;SDS011;47991;42.974;12.082;2023-08-07T01:21:03;11.40;;;3.00;;
62037;SDS011;47991;42.974;12.082;2023-08-07T01:23:30;11.90;;;3.10;;
62037;SDS011;47991;42.974;12.082;2023-08-07T01:25:57;9.40;;;2.60;;
62037;SDS011;47991;42.974;12.082;2023-08-07T01:28:27;10.80;;;3.00;;
62037;SDS011;47991;42.974;12.082;2023-08-07T01:31:03;8.90;;;2.70;;
62037;SDS011;47991;42.974;12.082;2023-08-07T01:33:42;13.30;;;3.50;;
62037;SDS011;47991;42.974;12.082;2023-08-07T01:36:17;11.80;;;3.20;;
62037;SDS011;47991;42.974;12.082;2023-08-07T01:38:46;10.20;;;3.10;;
62037;SDS011;47991;42.974;12.082;2023-08-07T01:41:16;14.90;;;3.90;;
62037;SDS011;47991;42.974;12.082;2023-08-07T01:43:43;13.40;;;3.20;;
62037;SDS011;47991;42.974;12.082;2023-08-07T01:46:10;13.30;;;3.30;;
62037;SDS011;47991;42.974;12.082;2023-08-07T01:48:37;11.60;;;3.40;;
62037;SDS011;47991;42.974;12.082;2023-08-07T01:51:04;12.50;;;3.40;;
62037;SDS011;47991;42.974;12.082;2023-08-07T01:53:31;11.50;;;2.90;;
62037;SDS011;47991;42.974;12.082;2023-08-07T01:55:58;12.90;;;3.10;;
62037;SDS011;47991;42.974;12.082;2023-08-07T01:58:24;11.90;;;3.30;;
62037;SDS011;47991;42.974;12.082;2023-08-07T02:00:51;15.20;;;3.30;;
62037;SDS011;47991;42.974;12.082;2023-08-07T02:03:20;14.10;;;3.50;;
62037;SDS011;47991;42.974;12.082;2023-08-07T02:05:47;11.80;;;3.20;;
62037;SDS011;47991;42.974;12.082;2023-08-07T02:08:14;10.90;;;2.90;;
62037;SDS011;47991;42.974;12.082;2023-08-07T02:10:42;10.60;;;3.10;;
62037;SDS011;47991;42.974;12.082;2023-08-07T02:13:08;14.00;;;3.40;;
62037;SDS011;47991;42.974;12.082;2023-08-07T02:15:35;12.90;;;3.50;;
62037;SDS011;47991;42.974;12.082;2023-08-07T02:18:02;12.00;;;3.30;;
62037;SDS011;47991;42.974;12.082;2023-08-07T02:20:29;14.40;;;3.50;;
62037;SDS011;47991;42.974;12.082;2023-08-07T02:22:56;11.60;;;2.70;;
62037;SDS011;47991;42.974;12.082;2023-08-07T02:25:23;12.50;;;3.10;;
62037;SDS011;47991;42.974;12.082;2023-08-07T02:27:50;13.10;;;3.10;;
62037;SDS011;47991;42.974;12.082;2023-08-07T02:30:17;13.30;;;3.10;;
62037;SDS011;47991;42.974;12.082;2023-08-07T02:32:43;11.50;;;3.10;;
62037;SDS011;47991;42.974;12.082;2023-08-07T02:35:11;11.40;;;3.20;;
62037;SDS011;47991;42.974;12.082;2023-08-07T02:37:37;10.90;;;2.80;;
62037;SDS011;47991;42.974;12.082;2023-08-07T02:40:04;10.40;;;2.70;;
62037;SDS011;47991;42.974;12.082;2023-08-07T02:42:32;11.40;;;2.90;;
62037;SDS011;47991;42.974;12.082;2023-08-07T02:44:58;10.60;;;3.00;;
62037;SDS011;47991;42.974;12.082;2023-08-07T02:47:25;10.50;;;3.10;;
62037;SDS011;47991;42.974;12.082;2023-08-07T02:49:52;10.90;;;3.30;;
62037;SDS011;47991;42.974;12.082;2023-08-07T02:52:19;10.80;;;3.30;;
62037;SDS011;47991;42.974;12.082;2023-08-07T02:54:46;10.90;;;3.20;;
62037;SDS011;47991;42.974;12.082;2023-08-07T02:57:12;12.90;;;3.40;;
62037;SDS011;47991;42.974;12.082;2023-08-07T02:59:39;11.40;;;2.70;;
62037;SDS011;47991;42.974;12.082;2023-08-07T03:02:06;13.20;;;3.50;;
62037;SDS011;47991;42.974;12.082;2023-08-07T03:04:33;10.20;;;2.90;;
62037;SDS011;47991;42.974;12.082;2023-08-07T03:07:00;9.90;;;2.60;;
62037;SDS011;47991;42.974;12.082;2023-08-07T03:09:27;11.40;;;3.10;;
62037;SDS011;47991;42.974;12.082;2023-08-07T03:11:54;10.80;;;3.20;;
62037;SDS011;47991;42.974;12.082;2023-08-07T03:14:21;11.60;;;3.30;;
62037;SDS011;47991;42.974;12.082;2023-08-07T03:16:48;14.30;;;3.40;;
62037;SDS011;47991;42.974;12.082;2023-08-07T03:19:15;12.80;;;3.20;;
62037;SDS011;47991;42.974;12.082;2023-08-07T03:21:42;9.50;;;3.00;;
62037;SDS011;47991;42.974;12.082;2023-08-07T03:24:09;10.60;;;3.10;;
62037;SDS011;47991;42.974;12.082;2023-08-07T03:26:36;12.70;;;3.10;;
62037;SDS011;47991;42.974;12.082;2023-08-07T03:29:02;11.10;;;2.60;;
62037;SDS011;47991;42.974;12.082;2023-08-07T03:31:29;13.60;;;3.60;;
62037;SDS011;47991;42.974;12.082;2023-08-07T03:33:56;13.00;;;2.90;;
62037;SDS011;47991;42.974;12.082;2023-08-07T03:36:23;8.60;;;2.70;;
62037;SDS011;47991;42.974;12.082;2023-08-07T03:38:50;10.80;;;2.90;;
62037;SDS011;47991;42.974;12.082;2023-08-07T03:41:17;10.10;;;3.20;;
62037;SDS011;47991;42.974;12.082;2023-08-07T03:43:44;9.40;;;2.90;;
62037;SDS011;47991;42.974;12.082;2023-08-07T03:46:11;13.30;;;3.00;;
62037;SDS011;47991;42.974;12.082;2023-08-07T03:48:38;9.90;;;2.70;;
62037;SDS011;47991;42.974;12.082;2023-08-07T03:51:05;11.70;;;2.90;;
62037;SDS011;47991;42.974;12.082;2023-08-07T03:53:41;12.80;;;3.30;;
62037;SDS011;47991;42.974;12.082;2023-08-07T03:56:08;11.10;;;2.80;;
62037;SDS011;47991;42.974;12.082;2023-08-07T03:58:34;12.20;;;2.90;;
62037;SDS011;47991;42.974;12.082;2023-08-07T04:01:01;10.20;;;2.70;;
62037;SDS011;47991;42.974;12.082;2023-08-07T04:03:28;10.70;;;2.90;;
62037;SDS011;47991;42.974;12.082;2023-08-07T04:05:55;11.20;;;3.00;;
62037;SDS011;47991;42.974;12.082;2023-08-07T04:08:22;10.50;;;2.90;;
62037;SDS011;47991;42.974;12.082;2023-08-07T04:11:02;12.00;;;3.20;;
62037;SDS011;47991;42.974;12.082;2023-08-07T04:13:30;11.50;;;2.90;;
62037;SDS011;47991;42.974;12.082;2023-08-07T04:15:57;9.50;;;2.80;;
62037;SDS011;47991;42.974;12.082;2023-08-07T04:18:25;10.10;;;3.20;;
62037;SDS011;47991;42.974;12.082;2023-08-07T04:20:52;11.40;;;2.70;;
62037;SDS011;47991;42.974;12.082;2023-08-07T04:23:21;12.30;;;3.20;;
62037;SDS011;47991;42.974;12.082;2023-08-07T04:25:49;12.20;;;3.30;;
62037;SDS011;47991;42.974;12.082;2023-08-07T04:28:16;11.70;;;2.90;;
62037;SDS011;47991;42.974;12.082;2023-08-07T04:30:44;13.40;;;2.90;;
62037;SDS011;47991;42.974;12.082;2023-08-07T04:33:11;9.40;;;2.80;;
62037;SDS011;47991;42.974;12.082;2023-08-07T04:35:39;11.50;;;2.60;;
62037;SDS011;47991;42.974;12.082;2023-08-07T04:38:06;10.10;;;2.90;;
62037;SDS011;47991;42.974;12.082;2023-08-07T04:40:33;11.20;;;2.90;;
62037;SDS011;47991;42.974;12.082;2023-08-07T04:43:00;9.50;;;2.70;;
62037;SDS011;47991;42.974;12.082;2023-08-07T04:45:28;10.50;;;2.50;;
62037;SDS011;47991;42.974;12.082;2023-08-07T04:47:55;10.30;;;2.80;;
62037;SDS011;47991;42.974;12.082;2023-08-07T04:50:22;12.40;;;2.90;;
62037;SDS011;47991;42.974;12.082;2023-08-07T04:52:49;12.30;;;3.00;;
62037;SDS011;47991;42.974;12.082;2023-08-07T04:55:15;11.90;;;2.90;;
62037;SDS011;47991;42.974;12.082;2023-08-07T04:57:42;11.20;;;2.70;;
62037;SDS011;47991;42.974;12.082;2023-08-07T05:00:09;10.20;;;2.60;;
62037;SDS011;47991;42.974;12.082;2023-08-07T05:02:37;10.00;;;2.70;;
62037;SDS011;47991;42.974;12.082;2023-08-07T05:05:05;10.30;;;2.80;;
62037;SDS011;47991;42.974;12.082;2023-08-07T05:07:33;10.20;;;2.90;;
62037;SDS011;47991;42.974;12.082;2023-08-07T05:10:01;12.10;;;2.90;;
62037;SDS011;47991;42.974;12.082;2023-08-07T05:12:29;8.70;;;2.80;;
62037;SDS011;47991;42.974;12.082;2023-08-07T05:14:55;10.10;;;3.40;;
62037;SDS011;47991;42.974;12.082;2023-08-07T05:17:22;10.00;;;2.90;;
62037;SDS011;47991;42.974;12.082;2023-08-07T05:19:49;10.60;;;2.60;;
62037;SDS011;47991;42.974;12.082;2023-08-07T05:22:16;10.00;;;2.60;;
62037;SDS011;47991;42.974;12.082;2023-08-07T05:24:43;9.20;;;3.10;;
62037;SDS011;47991;42.974;12.082;2023-08-07T05:27:11;11.60;;;2.90;;
62037;SDS011;47991;42.974;12.082;2023-08-07T05:29:38;8.80;;;2.50;;
62037;SDS011;47991;42.974;12.082;2023-08-07T05:32:10;9.50;;;2.50;;
62037;SDS011;47991;42.974;12.082;2023-08-07T05:34:37;10.00;;;2.80;;
62037;SDS011;47991;42.974;12.082;2023-08-07T05:37:05;9.80;;;2.30;;
62037;SDS011;47991;42.974;12.082;2023-08-07T05:39:32;10.60;;;2.90;;
62037;SDS011;47991;42.974;12.082;2023-08-07T05:42:00;7.10;;;2.30;;
62037;SDS011;47991;42.974;12.082;2023-08-07T05:44:27;10.00;;;2.60;;
62037;SDS011;47991;42.974;12.082;2023-08-07T05:46:54;7.50;;;2.20;;
62037;SDS011;47991;42.974;12.082;2023-08-07T05:49:21;12.00;;;2.40;;
62037;SDS011;47991;42.974;12.082;2023-08-07T05:51:48;8.10;;;2.10;;
62037;SDS011;47991;42.974;12.082;2023-08-07T05:54:15;7.20;;;2.30;;
62037;SDS011;47991;42.974;12.082;2023-08-07T05:56:42;8.30;;;2.60;;
62037;SDS011;47991;42.974;12.082;2023-08-07T05:59:09;7.70;;;2.10;;
62037;SDS011;47991;42.974;12.082;2023-08-07T06:01:36;11.00;;;2.70;;
62037;SDS011;47991;42.974;12.082;2023-08-07T06:04:04;7.60;;;2.30;;
62037;SDS011;47991;42.974;12.082;2023-08-07T06:06:31;9.10;;;2.60;;
62037;SDS011;47991;42.974;12.082;2023-08-07T06:09:02;7.20;;;2.00;;
62037;SDS011;47991;42.974;12.082;2023-08-07T06:11:30;7.40;;;2.30;;
62037;SDS011;47991;42.974;12.082;2023-08-07T06:13:56;7.30;;;2.10;;
62037;SDS011;47991;42.974;12.082;2023-08-07T06:16:24;10.00;;;2.50;;
62037;SDS011;47991;42.974;12.082;2023-08-07T06:18:51;8.60;;;2.60;;
62037;SDS011;47991;42.974;12.082;2023-08-07T06:21:18;10.20;;;2.90;;
62037;SDS011;47991;42.974;12.082;2023-08-07T06:23:47;9.30;;;2.60;;
62037;SDS011;47991;42.974;12.082;2023-08-07T06:26:14;8.80;;;2.50;;
62037;SDS011;47991;42.974;12.082;2023-08-07T06:28:41;9.70;;;2.40;;
62037;SDS011;47991;42.974;12.082;2023-08-07T06:31:10;8.90;;;2.90;;
62037;SDS011;47991;42.974;12.082;2023-08-07T06:33:37;11.00;;;2.90;;
62037;SDS011;47991;42.974;12.082;2023-08-07T06:36:06;10.60;;;2.80;;
62037;SDS011;47991;42.974;12.082;2023-08-07T06:38:33;16.50;;;3.30;;
62037;SDS011;47991;42.974;12.082;2023-08-07T06:41:00;9.50;;;3.00;;
62037;SDS011;47991;42.974;12.082;2023-08-07T06:43:27;13.40;;;3.00;;
62037;SDS011;47991;42.974;12.082;2023-08-07T06:45:55;10.60;;;2.80;;
62037;SDS011;47991;42.974;12.082;2023-08-07T06:48:23;13.20;;;3.10;;
62037;SDS011;47991;42.974;12.082;2023-08-07T06:50:50;16.50;;;3.10;;
62037;SDS011;47991;42.974;12.082;2023-08-07T06:53:17;11.10;;;2.80;;
62037;SDS011;47991;42.974;12.082;2023-08-07T06:55:46;14.00;;;3.10;;
62037;SDS011;47991;42.974;12.082;2023-08-07T06:58:12;14.80;;;3.10;;
62037;SDS011;47991;42.974;12.082;2023-08-07T07:00:39;14.10;;;4.00;;
62037;SDS011;47991;42.974;12.082;2023-08-07T07:03:06;14.50;;;3.20;;
62037;SDS011;47991;42.974;12.082;2023-08-07T07:05:36;14.70;;;3.40;;
62037;SDS011;47991;42.974;12.082;2023-08-07T07:08:03;15.30;;;3.30;;
62037;SDS011;47991;42.974;12.082;2023-08-07T07:10:30;20.60;;;3.20;;
62037;SDS011;47991;42.974;12.082;2023-08-07T07:12:57;16.60;;;4.10;;
62037;SDS011;47991;42.974;12.082;2023-08-07T07:15:24;16.90;;;3.60;;
62037;SDS011;47991;42.974;12.082;2023-08-07T07:17:51;15.50;;;3.90;;
62037;SDS011;47991;42.974;12.082;2023-08-07T07:20:18;15.20;;;3.40;;
62037;SDS011;47991;42.974;12.082;2023-08-07T07:22:45;15.50;;;3.90;;
62037;SDS011;47991;42.974;12.082;2023-08-07T07:25:11;16.10;;;3.60;;
62037;SDS011;47991;42.974;12.082;2023-08-07T07:27:39;17.50;;;4.00;;
62037;SDS011;47991;42.974;12.082;2023-08-07T07:30:06;19.50;;;3.70;;
62037;SDS011;47991;42.974;12.082;2023-08-07T07:32:34;18.20;;;4.20;;
62037;SDS011;47991;42.974;12.082;2023-08-07T07:35:04;19.90;;;3.80;;
62037;SDS011;47991;42.974;12.082;2023-08-07T07:37:31;20.30;;;4.70;;
62037;SDS011;47991;42.974;12.082;2023-08-07T07:39:58;16.20;;;4.00;;
62037;SDS011;47991;42.974;12.082;2023-08-07T07:42:25;16.40;;;4.10;;
62037;SDS011;47991;42.974;12.082;2023-08-07T07:44:52;15.90;;;3.30;;
62037;SDS011;47991;42.974;12.082;2023-08-07T07:47:19;17.60;;;4.00;;
62037;SDS011;47991;42.974;12.082;2023-08-07T07:49:47;16.10;;;3.50;;
62037;SDS011;47991;42.974;12.082;2023-08-07T07:52:14;21.00;;;4.20;;
62037;SDS011;47991;42.974;12.082;2023-08-07T07:54:41;18.00;;;3.90;;
62037;SDS011;47991;42.974;12.082;2023-08-07T07:57:08;16.70;;;4.00;;
62037;SDS011;47991;42.974;12.082;2023-08-07T07:59:35;16.40;;;3.50;;
62037;SDS011;47991;42.974;12.082;2023-08-07T08:02:03;19.90;;;4.60;;
62037;SDS011;47991;42.974;12.082;2023-08-07T08:04:30;18.40;;;4.10;;
62037;SDS011;47991;42.974;12.082;2023-08-07T08:06:57;17.20;;;3.90;;
62037;SDS011;47991;42.974;12.082;2023-08-07T08:09:24;15.20;;;3.70;;
62037;SDS011;47991;42.974;12.082;2023-08-07T08:11:51;16.30;;;4.00;;
62037;SDS011;47991;42.974;12.082;2023-08-07T08:14:18;16.00;;;3.50;;
62037;SDS011;47991;42.974;12.082;2023-08-07T08:16:45;17.70;;;3.70;;
62037;SDS011;47991;42.974;12.082;2023-08-07T08:19:12;14.20;;;3.20;;
62037;SDS011;47991;42.974;12.082;2023-08-07T08:21:40;17.70;;;3.80;;
62037;SDS011;47991;42.974;12.082;2023-08-07T08:24:07;12.70;;;3.30;;
62037;SDS011;47991;42.974;12.082;2023-08-07T08:26:33;14.50;;;3.80;;
62037;SDS011;47991;42.974;12.082;2023-08-07T08:29:01;14.10;;;3.70;;
62037;SDS011;47991;42.974;12.082;2023-08-07T08:31:28;15.90;;;3.20;;
62037;SDS011;47991;42.974;12.082;2023-08-07T08:33:55;48.00;;;5.10;;
62037;SDS011;47991;42.974;12.082;2023-08-07T08:36:22;16.90;;;4.10;;
62037;SDS011;47991;42.974;12.082;2023-08-07T08:38:49;14.20;;;3.20;;
62037;SDS011;47991;42.974;12.082;2023-08-07T08:41:17;16.00;;;3.60;;
62037;SDS011;47991;42.974;12.082;2023-08-07T08:43:45;13.50;;;3.50;;
62037;SDS011;47991;42.974;12.082;2023-08-07T08:46:16;15.00;;;3.30;;
62037;SDS011;47991;42.974;12.082;2023-08-07T08:48:50;17.10;;;3.40;;
62037;SDS011;47991;42.974;12.082;2023-08-07T08:51:19;13.20;;;3.60;;
62037;SDS011;47991;42.974;12.082;2023-08-07T08:53:48;12.00;;;3.20;;
62037;SDS011;47991;42.974;12.082;2023-08-07T08:56:15;13.50;;;3.30;;
62037;SDS011;47991;42.974;12.082;2023-08-07T08:58:43;11.80;;;3.10;;
62037;SDS011;47991;42.974;12.082;2023-08-07T09:01:10;18.20;;;3.00;;
62037;SDS011;47991;42.974;12.082;2023-08-07T09:03:38;15.30;;;3.40;;
62037;SDS011;47991;42.974;12.082;2023-08-07T09:06:06;13.80;;;3.60;;
62037;SDS011;47991;42.974;12.082;2023-08-07T09:08:33;12.30;;;2.90;;
62037;SDS011;47991;42.974;12.082;2023-08-07T09:11:01;13.10;;;3.10;;
62037;SDS011;47991;42.974;12.082;2023-08-07T09:13:29;14.20;;;3.00;;
62037;SDS011;47991;42.974;12.082;2023-08-07T09:15:59;13.60;;;3.40;;
62037;SDS011;47991;42.974;12.082;2023-08-07T09:18:28;19.10;;;3.20;;
62037;SDS011;47991;42.974;12.082;2023-08-07T09:20:55;14.30;;;3.40;;
62037;SDS011;47991;42.974;12.082;2023-08-07T09:23:28;11.70;;;2.70;;
62037;SDS011;47991;42.974;12.082;2023-08-07T09:26:01;11.70;;;2.50;;
62037;SDS011;47991;42.974;12.082;2023-08-07T09:28:30;31.70;;;4.30;;
62037;SDS011;47991;42.974;12.082;2023-08-07T09:30:59;10.80;;;2.10;;
62037;SDS011;47991;42.974;12.082;2023-08-07T09:33:28;10.90;;;2.60;;
62037;SDS011;47991;42.974;12.082;2023-08-07T09:35:57;8.30;;;2.50;;
62037;SDS011;47991;42.974;12.082;2023-08-07T09:38:29;12.50;;;3.00;;
62037;SDS011;47991;42.974;12.082;2023-08-07T09:41:00;9.70;;;2.90;;
62037;SDS011;47991;42.974;12.082;2023-08-07T09:43:33;9.40;;;2.70;;
62037;SDS011;47991;42.974;12.082;2023-08-07T09:46:05;11.20;;;2.70;;
62037;SDS011;47991;42.974;12.082;2023-08-07T09:48:40;13.30;;;2.60;;
62037;SDS011;47991;42.974;12.082;2023-08-07T09:51:11;12.20;;;2.90;;
62037;SDS011;47991;42.974;12.082;2023-08-07T09:53:38;9.30;;;2.40;;
62037;SDS011;47991;42.974;12.082;2023-08-07T09:56:05;10.40;;;2.30;;
62037;SDS011;47991;42.974;12.082;2023-08-07T09:58:35;11.10;;;2.70;;
62037;SDS011;47991;42.974;12.082;2023-08-07T10:01:02;11.50;;;2.50;;
62037;SDS011;47991;42.974;12.082;2023-08-07T10:03:30;14.50;;;2.80;;
62037;SDS011;47991;42.974;12.082;2023-08-07T10:05:58;13.50;;;2.60;;
62037;SDS011;47991;42.974;12.082;2023-08-07T10:08:26;8.00;;;2.40;;
62037;SDS011;47991;42.974;12.082;2023-08-07T10:10:53;10.30;;;2.80;;
62037;SDS011;47991;42.974;12.082;2023-08-07T10:13:21;11.30;;;2.90;;
62037;SDS011;47991;42.974;12.082;2023-08-07T10:15:49;23.30;;;3.80;;
62037;SDS011;47991;42.974;12.082;2023-08-07T10:18:17;11.20;;;2.50;;
62037;SDS011;47991;42.974;12.082;2023-08-07T10:20:44;8.10;;;2.30;;
62037;SDS011;47991;42.974;12.082;2023-08-07T10:23:13;12.40;;;2.70;;
62037;SDS011;47991;42.974;12.082;2023-08-07T10:25:43;8.50;;;2.50;;
62037;SDS011;47991;42.974;12.082;2023-08-07T10:28:15;8.80;;;2.40;;
62037;SDS011;47991;42.974;12.082;2023-08-07T10:30:45;9.10;;;2.40;;
62037;SDS011;47991;42.974;12.082;2023-08-07T10:33:12;8.50;;;2.30;;
62037;SDS011;47991;42.974;12.082;2023-08-07T10:35:44;8.50;;;2.50;;
62037;SDS011;47991;42.974;12.082;2023-08-07T10:38:15;8.00;;;1.90;;
62037;SDS011;47991;42.974;12.082;2023-08-07T10:43:38;7.90;;;2.30;;
62037;SDS011;47991;42.974;12.082;2023-08-07T10:46:08;9.50;;;2.20;;
62037;SDS011;47991;42.974;12.082;2023-08-07T10:48:37;7.60;;;2.00;;
62037;SDS011;47991;42.974;12.082;2023-08-07T10:51:05;6.80;;;2.00;;
62037;SDS011;47991;42.974;12.082;2023-08-07T10:56:05;6.90;;;2.10;;
62037;SDS011;47991;42.974;12.082;2023-08-07T10:58:35;10.50;;;2.30;;
62037;SDS011;47991;42.974;12.082;2023-08-07T11:01:21;6.80;;;1.90;;
62037;SDS011;47991;42.974;12.082;2023-08-07T11:03:58;4.90;;;2.00;;
62037;SDS011;47991;42.974;12.082;2023-08-07T11:06:30;4.90;;;1.70;;
62037;SDS011;47991;42.974;12.082;2023-08-07T11:08:59;6.50;;;1.90;;
62037;SDS011;47991;42.974;12.082;2023-08-07T11:11:27;7.10;;;1.80;;
62037;SDS011;47991;42.974;12.082;2023-08-07T11:13:54;6.60;;;1.70;;
62037;SDS011;47991;42.974;12.082;2023-08-07T11:16:20;5.20;;;1.80;;
62037;SDS011;47991;42.974;12.082;2023-08-07T11:18:48;7.00;;;2.20;;
62037;SDS011;47991;42.974;12.082;2023-08-07T11:21:16;8.90;;;2.20;;
62037;SDS011;47991;42.974;12.082;2023-08-07T11:23:42;8.50;;;1.90;;
62037;SDS011;47991;42.974;12.082;2023-08-07T11:26:10;6.80;;;1.60;;
62037;SDS011;47991;42.974;12.082;2023-08-07T11:28:37;7.40;;;1.90;;
62037;SDS011;47991;42.974;12.082;2023-08-07T11:31:04;9.80;;;2.40;;
62037;SDS011;47991;42.974;12.082;2023-08-07T11:33:31;7.10;;;2.00;;
62037;SDS011;47991;42.974;12.082;2023-08-07T11:35:58;10.90;;;2.20;;
62037;SDS011;47991;42.974;12.082;2023-08-07T11:38:29;6.90;;;1.60;;
62037;SDS011;47991;42.974;12.082;2023-08-07T11:41:05;6.50;;;1.80;;
62037;SDS011;47991;42.974;12.082;2023-08-07T11:43:33;7.30;;;1.90;;
62037;SDS011;47991;42.974;12.082;2023-08-07T11:46:01;6.30;;;2.00;;
62037;SDS011;47991;42.974;12.082;2023-08-07T11:48:31;7.60;;;2.10;;
62037;SDS011;47991;42.974;12.082;2023-08-07T11:51:00;7.30;;;1.90;;
62037;SDS011;47991;42.974;12.082;2023-08-07T11:53:30;8.50;;;2.10;;
62037;SDS011;47991;42.974;12.082;2023-08-07T11:55:59;5.00;;;1.90;;
62037;SDS011;47991;42.974;12.082;2023-08-07T12:01:03;6.20;;;2.00;;
62037;SDS011;47991;42.974;12.082;2023-08-07T12:03:36;8.70;;;2.20;;
62037;SDS011;47991;42.974;12.082;2023-08-07T12:06:08;8.80;;;1.90;;
62037;SDS011;47991;42.974;12.082;2023-08-07T12:08:36;6.30;;;1.80;;
62037;SDS011;47991;42.974;12.082;2023-08-07T12:11:05;5.70;;;1.80;;
62037;SDS011;47991;42.974;12.082;2023-08-07T12:13:40;7.90;;;2.10;;
62037;SDS011;47991;42.974;12.082;2023-08-07T12:16:08;4.90;;;1.80;;
62037;SDS011;47991;42.974;12.082;2023-08-07T12:18:37;6.20;;;1.60;;
62037;SDS011;47991;42.974;12.082;2023-08-07T12:21:06;23.80;;;2.80;;
62037;SDS011;47991;42.974;12.082;2023-08-07T12:23:34;6.90;;;2.00;;
62037;SDS011;47991;42.974;12.082;2023-08-07T12:26:02;5.50;;;1.80;;
62037;SDS011;47991;42.974;12.082;2023-08-07T12:28:36;3.90;;;1.70;;
62037;SDS011;47991;42.974;12.082;2023-08-07T12:31:04;3.20;;;1.50;;
62037;SDS011;47991;42.974;12.082;2023-08-07T12:33:31;3.70;;;1.50;;
62037;SDS011;47991;42.974;12.082;2023-08-07T12:35:58;4.80;;;1.40;;
62037;SDS011;47991;42.974;12.082;2023-08-07T12:38:26;4.10;;;1.70;;
62037;SDS011;47991;42.974;12.082;2023-08-07T12:40:55;5.80;;;1.80;;
62037;SDS011;47991;42.974;12.082;2023-08-07T12:43:22;5.90;;;2.10;;
62037;SDS011;47991;42.974;12.082;2023-08-07T12:45:49;4.80;;;1.80;;
62037;SDS011;47991;42.974;12.082;2023-08-07T12:48:15;4.60;;;1.40;;
62037;SDS011;47991;42.974;12.082;2023-08-07T12:50:43;4.10;;;1.40;;
62037;SDS011;47991;42.974;12.082;2023-08-07T12:53:11;3.90;;;1.50;;
62037;SDS011;47991;42.974;12.082;2023-08-07T12:55:38;8.00;;;1.70;;
62037;SDS011;47991;42.974;12.082;2023-08-07T12:58:05;3.40;;;1.50;;
62037;SDS011;47991;42.974;12.082;2023-08-07T13:00:32;2.30;;;1.20;;
62037;SDS011;47991;42.974;12.082;2023-08-07T13:02:58;8.00;;;1.80;;
62037;SDS011;47991;42.974;12.082;2023-08-07T13:05:27;4.80;;;1.60;;
62037;SDS011;47991;42.974;12.082;2023-08-07T13:07:56;3.90;;;1.70;;
62037;SDS011;47991;42.974;12.082;2023-08-07T13:10:24;3.50;;;1.60;;
62037;SDS011;47991;42.974;12.082;2023-08-07T13:12:54;5.10;;;1.60;;
62037;SDS011;47991;42.974;12.082;2023-08-07T13:15:21;6.00;;;1.70;;
62037;SDS011;47991;42.974;12.082;2023-08-07T13:17:48;3.60;;;1.30;;
62037;SDS011;47991;42.974;12.082;2023-08-07T13:20:15;7.90;;;1.90;;
62037;SDS011;47991;42.974;12.082;2023-08-07T13:22:42;4.70;;;1.70;;
62037;SDS011;47991;42.974;12.082;2023-08-07T13:25:12;6.00;;;1.90;;
62037;SDS011;47991;42.974;12.082;2023-08-07T13:27:40;4.70;;;1.80;;
62037;SDS011;47991;42.974;12.082;2023-08-07T13:30:07;8.80;;;1.90;;
62037;SDS011;47991;42.974;12.082;2023-08-07T13:32:35;4.90;;;1.70;;
62037;SDS011;47991;42.974;12.082;2023-08-07T13:35:03;5.70;;;1.70;;
62037;SDS011;47991;42.974;12.082;2023-08-07T13:40:00;4.60;;;1.60;;
62037;SDS011;47991;42.974;12.082;2023-08-07T13:42:27;12.30;;;2.00;;
62037;SDS011;47991;42.974;12.082;2023-08-07T13:44:54;8.00;;;1.80;;
62037;SDS011;47991;42.974;12.082;2023-08-07T13:47:22;4.70;;;1.70;;
62037;SDS011;47991;42.974;12.082;2023-08-07T13:49:52;6.70;;;2.00;;
62037;SDS011;47991;42.974;12.082;2023-08-07T13:52:20;6.20;;;2.20;;
62037;SDS011;47991;42.974;12.082;2023-08-07T13:54:48;5.00;;;1.80;;
62037;SDS011;47991;42.974;12.082;2023-08-07T13:57:14;4.30;;;1.70;;
62037;SDS011;47991;42.974;12.082;2023-08-07T13:59:42;6.30;;;2.00;;
62037;SDS011;47991;42.974;12.082;2023-08-07T14:02:09;6.90;;;2.20;;
62037;SDS011;47991;42.974;12.082;2023-08-07T14:04:37;5.10;;;1.80;;
62037;SDS011;47991;42.974;12.082;2023-08-07T14:07:04;7.40;;;2.30;;
62037;SDS011;47991;42.974;12.082;2023-08-07T14:09:31;5.60;;;2.10;;
62037;SDS011;47991;42.974;12.082;2023-08-07T14:11:57;4.00;;;1.70;;
62037;SDS011;47991;42.974;12.082;2023-08-07T14:14:24;5.50;;;1.70;;
62037;SDS011;47991;42.974;12.082;2023-08-07T14:16:51;6.10;;;1.80;;
62037;SDS011;47991;42.974;12.082;2023-08-07T14:19:20;5.00;;;2.00;;
62037;SDS011;47991;42.974;12.082;2023-08-07T14:21:47;3.70;;;1.80;;
62037;SDS011;47991;42.974;12.082;2023-08-07T14:24:14;4.70;;;1.70;;
62037;SDS011;47991;42.974;12.082;2023-08-07T14:26:43;4.50;;;1.90;;
62037;SDS011;47991;42.974;12.082;2023-08-07T14:29:09;6.50;;;1.70;;
62037;SDS011;47991;42.974;12.082;2023-08-07T14:31:36;4.90;;;1.70;;
62037;SDS011;47991;42.974;12.082;2023-08-07T14:34:03;4.80;;;1.80;;
62037;SDS011;47991;42.974;12.082;2023-08-07T14:36:30;5.50;;;1.80;;
62037;SDS011;47991;42.974;12.082;2023-08-07T14:38:57;4.20;;;1.70;;
62037;SDS011;47991;42.974;12.082;2023-08-07T14:41:23;9.70;;;2.00;;
62037;SDS011;47991;42.974;12.082;2023-08-07T14:43:50;4.00;;;1.70;;
62037;SDS011;47991;42.974;12.082;2023-08-07T14:46:17;3.80;;;1.90;;